createdAt,value
2023-05-05T00:02:24.575Z,9.41
2023-05-05T00:05:27.098Z,9.49
2023-05-05T00:08:29.717Z,9.84
2023-05-05T00:11:32.209Z,9.92
2023-05-05T00:14:34.657Z,10.09
2023-05-05T00:17:37.240Z,10.09
2023-05-05T00:20:39.834Z,10.08
2023-05-05T00:23:42.283Z,10.04
2023-05-05T00:26:44.782Z,10.23
2023-05-05T00:29:47.426Z,10.24
2023-05-05T00:32:51.077Z,10.26
2023-05-05T00:35:53.461Z,10.18
2023-05-05T00:38:56.534Z,10.02
2023-05-05T00:41:59.454Z,10.48
2023-05-05T00:45:02.246Z,10.42
2023-05-05T00:48:05.704Z,10.18
2023-05-05T00:51:09.667Z,10.01
2023-05-05T00:54:12.184Z,9.75
2023-05-05T00:57:14.685Z,9.39
2023-05-05T01:00:18.074Z,9.24
2023-05-05T01:03:21.005Z,9.13
2023-05-05T01:06:35.226Z,9.09
2023-05-05T01:10:15.645Z,8.72
2023-05-05T01:13:42.696Z,8.58
2023-05-05T01:17:04.509Z,8.42
2023-05-05T01:20:22.418Z,8.48
2023-05-05T01:23:52.542Z,8.50
2023-05-05T01:27:12.948Z,8.54
2023-05-05T01:30:46.301Z,8.29
2023-05-05T01:33:55.091Z,8.34
2023-05-05T01:37:26.968Z,8.13
2023-05-05T01:40:40.505Z,7.79
2023-05-05T01:43:46.131Z,8.11
2023-05-05T01:46:52.012Z,7.92
2023-05-05T01:49:54.802Z,7.94
2023-05-05T01:52:57.795Z,7.81
2023-05-05T01:56:02.153Z,7.89
2023-05-05T01:59:05.586Z,7.90
2023-05-05T02:02:11.259Z,7.81
2023-05-05T02:05:15.549Z,7.80
2023-05-05T02:08:19.258Z,7.52
2023-05-05T02:11:21.889Z,7.98
2023-05-05T02:14:27.114Z,8.15
2023-05-05T02:17:30.513Z,8.41
2023-05-05T02:20:33.990Z,8.11
2023-05-05T02:23:36.526Z,8.04
2023-05-05T02:26:40.715Z,7.95
2023-05-05T02:29:48.992Z,7.88
2023-05-05T02:33:00.052Z,7.93
2023-05-05T02:36:12.411Z,7.61
2023-05-05T02:39:51.609Z,7.31
2023-05-05T02:42:57.425Z,7.37
2023-05-05T02:46:04.595Z,7.19
2023-05-05T02:49:08.603Z,7.24
2023-05-05T02:52:12.976Z,7.22
2023-05-05T02:55:17.108Z,7.29
2023-05-05T02:58:42.846Z,7.33
2023-05-05T03:02:11.985Z,7.24
2023-05-05T03:05:25.261Z,7.06
2023-05-05T03:08:40.980Z,7.12
2023-05-05T03:11:53.310Z,6.94
2023-05-05T03:14:58.543Z,7.03
2023-05-05T03:18:04.019Z,7.15
2023-05-05T03:21:10.225Z,7.18
2023-05-05T03:24:17.341Z,6.97
2023-05-05T03:27:24.887Z,7.21
2023-05-05T03:30:27.529Z,7.26
2023-05-05T03:33:29.932Z,7.11
2023-05-05T03:36:35.888Z,6.90
2023-05-05T03:39:38.899Z,7.00
2023-05-05T03:42:42.933Z,6.92
2023-05-05T03:45:45.437Z,7.17
2023-05-05T03:48:48.760Z,7.34
2023-05-05T03:51:51.437Z,7.30
2023-05-05T03:54:54.661Z,7.55
2023-05-05T03:57:57.084Z,7.29
2023-05-05T04:00:59.586Z,7.53
2023-05-05T04:04:02.517Z,7.47
2023-05-05T04:07:04.976Z,7.50
2023-05-05T04:10:08.650Z,7.46
2023-05-05T04:13:11.975Z,7.85
2023-05-05T04:16:14.916Z,7.91
2023-05-05T04:19:18.018Z,7.87
2023-05-05T04:22:21.211Z,8.22
2023-05-05T04:25:23.709Z,8.30
2023-05-05T04:28:26.341Z,8.38
2023-05-05T04:31:29.065Z,8.45
2023-05-05T04:34:31.491Z,8.66
2023-05-05T04:37:33.872Z,8.84
2023-05-05T04:40:40.138Z,8.79
2023-05-05T04:43:43.808Z,8.92
2023-05-05T04:46:46.280Z,8.81
2023-05-05T04:49:49.762Z,9.08
2023-05-05T04:52:52.882Z,9.49
2023-05-05T04:55:55.772Z,9.54
2023-05-05T04:58:58.303Z,9.46
2023-05-05T05:02:01.264Z,9.73
2023-05-05T05:05:04.105Z,9.81
2023-05-05T05:08:06.540Z,10.05
2023-05-05T05:11:09.048Z,10.12
2023-05-05T05:14:11.497Z,10.20
2023-05-05T05:17:13.907Z,10.25
2023-05-05T05:20:17.340Z,10.72
2023-05-05T05:23:19.765Z,10.84
2023-05-05T05:26:23.290Z,11.17
2023-05-05T05:29:27.136Z,11.36
2023-05-05T05:32:30.358Z,11.41
2023-05-05T05:35:33.122Z,11.74
2023-05-05T05:38:35.798Z,12.41
2023-05-05T05:41:39.738Z,13.15
2023-05-05T05:44:42.777Z,14.00
2023-05-05T05:47:45.299Z,14.65
2023-05-05T05:50:47.996Z,15.72
2023-05-05T05:53:51.884Z,16.76
2023-05-05T05:56:55.082Z,17.94
2023-05-05T05:59:59.244Z,18.60
2023-05-05T06:03:03.120Z,19.23
2023-05-05T06:06:09.030Z,19.43
2023-05-05T06:09:11.496Z,19.89
2023-05-05T06:12:14.100Z,20.77
2023-05-05T06:15:16.584Z,21.24
2023-05-05T06:18:19.272Z,21.59
2023-05-05T06:21:21.776Z,21.88
2023-05-05T06:24:24.279Z,22.15
2023-05-05T06:27:26.640Z,22.67
2023-05-05T06:30:29.198Z,22.43
2023-05-05T06:33:31.638Z,23.20
2023-05-05T06:36:34.057Z,23.50
2023-05-05T06:39:36.496Z,23.83
2023-05-05T06:42:39.297Z,24.54
2023-05-05T06:45:44.813Z,24.79
2023-05-05T06:48:47.593Z,25.34
2023-05-05T06:51:50.093Z,25.52
2023-05-05T06:54:52.486Z,25.21
2023-05-05T06:57:54.963Z,25.56
2023-05-05T07:00:57.404Z,25.63
2023-05-05T07:04:00.343Z,25.14
2023-05-05T07:07:02.945Z,26.25
2023-05-05T07:10:06.276Z,26.04
2023-05-05T07:13:09.051Z,25.81
2023-05-05T07:16:11.543Z,25.88
2023-05-05T07:19:13.983Z,25.42
2023-05-05T07:22:16.572Z,25.40
2023-05-05T07:25:19.139Z,24.98
2023-05-05T07:28:22.447Z,25.39
2023-05-05T07:31:26.409Z,25.37
2023-05-05T07:34:29.062Z,25.45
2023-05-05T07:37:31.599Z,26.11
2023-05-05T07:40:36.913Z,26.92
2023-05-05T07:43:42.820Z,26.75
2023-05-05T07:46:46.981Z,27.39
2023-05-05T07:49:49.397Z,28.23
2023-05-05T07:52:59.371Z,27.65
2023-05-05T07:56:12.910Z,27.91
2023-05-05T07:59:15.570Z,26.38
2023-05-05T08:02:18.282Z,27.09
2023-05-05T08:05:20.799Z,27.72
2023-05-05T08:08:25.066Z,27.62
2023-05-05T08:11:29.613Z,28.35
2023-05-05T08:14:32.872Z,28.16
2023-05-05T08:18:04.398Z,28.23
2023-05-05T08:21:08.837Z,27.07
2023-05-05T08:24:11.309Z,27.90
2023-05-05T08:27:14.176Z,28.63
2023-05-05T08:30:20.797Z,29.35
2023-05-05T08:33:23.168Z,29.80
2023-05-05T08:36:25.639Z,29.86
2023-05-05T08:39:28.384Z,29.42
2023-05-05T08:42:37.736Z,29.13
2023-05-05T08:45:42.112Z,29.14
2023-05-05T08:48:45.935Z,29.42
2023-05-05T08:51:49.839Z,29.67
2023-05-05T08:55:00.280Z,30.14
2023-05-05T08:58:04.295Z,29.62
2023-05-05T09:01:07.538Z,29.88
2023-05-05T09:04:11.041Z,29.92
2023-05-05T09:07:13.792Z,30.87
2023-05-05T09:10:16.411Z,31.27
2023-05-05T09:13:18.874Z,30.85
2023-05-05T09:16:22.537Z,30.57
2023-05-05T09:19:25.149Z,30.53
2023-05-05T09:22:42.206Z,30.85
2023-05-05T09:26:02.430Z,28.23
2023-05-05T09:29:05.755Z,29.32
2023-05-05T09:32:09.029Z,30.00
2023-05-05T09:35:11.717Z,30.46
2023-05-05T09:38:14.200Z,30.16
2023-05-05T09:41:36.760Z,29.73
2023-05-05T09:44:40.684Z,29.88
2023-05-05T09:47:43.090Z,30.04
2023-05-05T09:50:45.776Z,30.82
2023-05-05T09:53:48.283Z,31.60
2023-05-05T09:56:52.334Z,31.66
2023-05-05T09:59:59.723Z,31.17
2023-05-05T10:03:03.120Z,30.50
2023-05-05T10:06:07.794Z,30.27
2023-05-05T10:09:10.876Z,28.97
2023-05-05T10:12:13.462Z,29.30
2023-05-05T10:15:16.277Z,30.17
2023-05-05T10:18:28.770Z,31.28
2023-05-05T10:21:34.263Z,32.03
2023-05-05T10:24:47.176Z,31.88
2023-05-05T10:27:55.575Z,32.21
2023-05-05T10:31:00.587Z,32.26
2023-05-05T10:34:10.461Z,32.36
2023-05-05T10:37:13.207Z,31.79
2023-05-05T10:40:17.753Z,32.38
2023-05-05T10:43:20.944Z,31.95
2023-05-05T10:46:25.604Z,30.45
2023-05-05T10:49:41.138Z,30.65
2023-05-05T10:53:17.389Z,30.14
2023-05-05T10:56:33.819Z,30.06
2023-05-05T10:59:39.058Z,29.85
2023-05-05T11:02:42.029Z,31.25
2023-05-05T11:06:05.613Z,30.37
2023-05-05T11:09:27.866Z,30.56
2023-05-05T11:12:32.693Z,32.02
2023-05-05T11:15:37.694Z,31.52
2023-05-05T11:18:44.418Z,32.01
2023-05-05T11:22:02.516Z,31.48
2023-05-05T11:25:37.580Z,31.39
2023-05-05T11:28:56.752Z,32.62
2023-05-05T11:32:15.880Z,32.89
2023-05-05T11:35:18.764Z,31.97
2023-05-05T11:38:26.966Z,31.96
2023-05-05T11:41:32.186Z,31.39
2023-05-05T11:44:35.746Z,32.26
2023-05-05T11:47:38.218Z,32.36
2023-05-05T11:50:40.849Z,32.57
2023-05-05T11:53:44.943Z,32.77
2023-05-05T11:56:51.231Z,32.58
2023-05-05T11:59:58.075Z,32.35
2023-05-05T12:03:00.969Z,33.22
2023-05-05T12:06:04.654Z,31.76
2023-05-05T12:09:15.457Z,29.99
2023-05-05T12:12:20.166Z,30.09
2023-05-05T12:15:32.380Z,29.90
2023-05-05T12:18:34.715Z,29.96
2023-05-05T12:21:38.316Z,29.62
2023-05-05T12:24:41.114Z,30.07
2023-05-05T12:27:52.067Z,29.30
2023-05-05T12:30:58.973Z,28.45
2023-05-05T12:34:06.112Z,27.23
2023-05-05T12:37:08.542Z,27.73
2023-05-05T12:40:44.876Z,28.76
2023-05-05T12:43:48.036Z,29.05
2023-05-05T12:46:52.945Z,28.32
2023-05-05T12:49:56.090Z,27.88
2023-05-05T12:52:58.580Z,27.50
2023-05-05T12:56:00.990Z,27.52
2023-05-05T12:59:07.718Z,27.70
2023-05-05T13:02:10.207Z,25.94
2023-05-05T13:05:12.654Z,25.69
2023-05-05T13:08:15.134Z,26.81
2023-05-05T13:11:18.599Z,28.22
2023-05-05T13:14:22.322Z,28.69
2023-05-05T13:17:25.007Z,29.09
2023-05-05T13:20:27.731Z,28.22
2023-05-05T13:23:30.703Z,28.43
2023-05-05T13:26:33.259Z,26.74
2023-05-05T13:29:35.865Z,27.42
2023-05-05T13:32:38.334Z,28.33
2023-05-05T13:35:41.316Z,28.26
2023-05-05T13:38:43.892Z,28.46
2023-05-05T13:41:46.598Z,27.97
2023-05-05T13:44:49.105Z,27.38
2023-05-05T13:47:51.663Z,27.06
2023-05-05T13:50:54.027Z,27.44
2023-05-05T13:53:57.009Z,27.71
2023-05-05T13:57:00.055Z,28.09
2023-05-05T14:00:04.130Z,27.58
2023-05-05T14:03:09.857Z,26.04
2023-05-05T14:06:12.275Z,25.58
2023-05-05T14:09:14.887Z,25.53
2023-05-05T14:12:17.327Z,24.77
2023-05-05T14:15:19.766Z,25.66
2023-05-05T14:18:22.794Z,26.02
2023-05-05T14:21:25.245Z,26.46
2023-05-05T14:24:27.756Z,26.36
2023-05-05T14:27:30.225Z,25.71
2023-05-05T14:30:32.743Z,25.68
2023-05-05T14:33:35.243Z,25.94
2023-05-05T14:36:37.620Z,25.32
2023-05-05T14:39:40.163Z,25.22
2023-05-05T14:42:42.856Z,25.33
2023-05-05T14:45:45.397Z,24.50
2023-05-05T14:48:48.406Z,23.92
2023-05-05T14:51:50.870Z,23.82
2023-05-05T14:54:53.533Z,24.09
2023-05-05T14:57:56.107Z,24.02
2023-05-05T15:00:58.987Z,24.04
2023-05-05T15:04:01.533Z,23.88
2023-05-05T15:07:04.360Z,23.35
2023-05-05T15:10:07.665Z,23.45
2023-05-05T15:13:10.152Z,23.31
2023-05-05T15:16:12.664Z,23.31
2023-05-05T15:19:15.120Z,23.62
2023-05-05T15:22:17.818Z,23.52
2023-05-05T15:25:20.664Z,23.54
2023-05-05T15:28:24.265Z,23.21
2023-05-05T15:31:26.732Z,23.26
2023-05-05T15:34:29.291Z,23.08
2023-05-05T15:37:31.850Z,22.99
2023-05-05T15:40:34.415Z,22.70
2023-05-05T15:43:36.834Z,22.36
2023-05-05T15:46:39.805Z,22.46
2023-05-05T15:49:42.375Z,22.36
2023-05-05T15:52:44.791Z,22.38
2023-05-05T15:55:47.270Z,22.41
2023-05-05T15:58:55.621Z,22.02
2023-05-05T16:02:03.123Z,21.81
2023-05-05T16:05:10.185Z,21.94
2023-05-05T16:08:15.024Z,21.65
2023-05-05T16:11:17.542Z,21.62
2023-05-05T16:14:20.328Z,21.32
2023-05-05T16:17:22.902Z,21.43
2023-05-05T16:20:25.345Z,21.12
2023-05-05T16:23:27.744Z,21.50
2023-05-05T16:26:30.177Z,21.45
2023-05-05T16:29:32.599Z,21.26
2023-05-05T16:32:35.032Z,20.91
2023-05-05T16:35:37.474Z,20.92
2023-05-05T16:38:40.564Z,21.02
2023-05-05T16:42:03.877Z,20.59
2023-05-05T16:45:09.435Z,20.51
2023-05-05T16:48:13.781Z,20.33
2023-05-05T16:51:16.226Z,20.00
2023-05-05T16:54:18.611Z,19.79
2023-05-05T16:57:23.948Z,19.99
2023-05-05T17:00:26.468Z,19.89
2023-05-05T17:03:29.083Z,20.12
2023-05-05T17:06:34.286Z,19.83
2023-05-05T17:09:36.816Z,19.75
2023-05-05T17:12:39.306Z,19.68
2023-05-05T17:15:42.000Z,19.71
2023-05-05T17:18:44.521Z,19.42
2023-05-05T17:21:47.079Z,19.19
2023-05-05T17:24:49.494Z,19.17
2023-05-05T17:27:52.838Z,18.90
2023-05-05T17:30:55.334Z,18.96
2023-05-05T17:33:57.830Z,18.63
2023-05-05T17:37:00.327Z,18.31
2023-05-05T17:40:03.353Z,18.13
2023-05-05T17:43:05.754Z,18.09
2023-05-05T17:46:08.204Z,17.79
2023-05-05T17:49:10.586Z,17.67
2023-05-05T17:52:13.122Z,17.59
2023-05-05T17:55:15.736Z,17.23
2023-05-05T17:58:18.216Z,17.30
2023-05-05T18:01:25.212Z,17.14
2023-05-05T18:04:28.537Z,16.80
2023-05-05T18:07:30.924Z,16.99
2023-05-05T18:10:33.352Z,16.77
2023-05-05T18:13:35.992Z,16.55
2023-05-05T18:16:38.467Z,16.39
2023-05-05T18:19:46.153Z,16.47
2023-05-05T18:22:50.447Z,16.28
2023-05-05T18:25:52.841Z,16.29
2023-05-05T18:28:55.198Z,16.04
2023-05-05T18:31:57.664Z,15.76
2023-05-05T18:35:00.097Z,15.57
2023-05-05T18:38:03.364Z,15.56
2023-05-05T18:41:05.799Z,15.52
2023-05-05T18:44:08.362Z,15.32
2023-05-05T18:47:10.810Z,15.06
2023-05-05T18:50:13.616Z,14.89
2023-05-05T18:53:17.721Z,14.68
2023-05-05T18:56:21.536Z,14.78
2023-05-05T18:59:23.995Z,14.44
2023-05-05T19:02:26.980Z,14.58
2023-05-05T19:05:29.729Z,14.44
2023-05-05T19:08:32.158Z,14.34
2023-05-05T19:11:34.633Z,13.99
2023-05-05T19:14:37.107Z,13.92
2023-05-05T19:17:39.969Z,13.95
2023-05-05T19:20:43.596Z,13.91
2023-05-05T19:23:46.188Z,14.01
2023-05-05T19:26:48.750Z,13.78
2023-05-05T19:29:52.644Z,13.60
2023-05-05T19:32:55.617Z,13.68
2023-05-05T19:35:58.187Z,13.45
2023-05-05T19:39:01.930Z,13.53
2023-05-05T19:42:04.965Z,13.56
2023-05-05T19:45:07.934Z,13.39
2023-05-05T19:48:10.562Z,13.10
2023-05-05T19:51:13.199Z,13.63
2023-05-05T19:54:16.281Z,13.28
2023-05-05T19:57:18.858Z,13.08
2023-05-05T20:00:21.653Z,12.89
2023-05-05T20:03:24.108Z,12.88
2023-05-05T20:06:27.111Z,12.95
2023-05-05T20:09:29.809Z,12.96
2023-05-05T20:12:32.403Z,12.75
2023-05-05T20:15:34.984Z,12.53
2023-05-05T20:18:37.520Z,12.51
2023-05-05T20:21:40.218Z,12.52
2023-05-05T20:24:42.669Z,12.54
2023-05-05T20:27:45.829Z,12.44
2023-05-05T20:30:48.347Z,12.37
2023-05-05T20:33:51.088Z,12.29
2023-05-05T20:36:54.371Z,12.09
2023-05-05T20:39:58.236Z,11.99
2023-05-05T20:43:00.686Z,11.78
2023-05-05T20:46:03.274Z,11.61
2023-05-05T20:49:06.072Z,11.78
2023-05-05T20:52:09.293Z,11.45
2023-05-05T20:55:11.706Z,11.49
2023-05-05T20:58:14.124Z,11.34
2023-05-05T21:01:16.978Z,11.35
2023-05-05T21:04:19.610Z,10.96
2023-05-05T21:07:21.969Z,11.26
2023-05-05T21:10:24.434Z,11.14
2023-05-05T21:13:27.589Z,11.16
2023-05-05T21:16:29.970Z,11.62
2023-05-05T21:19:32.559Z,11.44
2023-05-05T21:22:35.234Z,11.63
2023-05-05T21:25:37.667Z,11.30
2023-05-05T21:28:40.093Z,11.38
2023-05-05T21:31:42.500Z,11.41
2023-05-05T21:34:45.438Z,11.44
2023-05-05T21:37:48.878Z,11.43
2023-05-05T21:40:58.925Z,11.08
2023-05-05T21:44:01.348Z,11.16
2023-05-05T21:47:05.433Z,11.05
2023-05-05T21:50:09.716Z,11.13
2023-05-05T21:53:12.279Z,10.97
2023-05-05T21:56:14.670Z,10.97
2023-05-05T21:59:17.430Z,10.97
2023-05-05T22:02:20.128Z,10.92
2023-05-05T22:05:23.152Z,10.72
2023-05-05T22:08:25.514Z,10.72
2023-05-05T22:11:28.227Z,10.78
2023-05-05T22:14:30.634Z,10.70
2023-05-05T22:17:33.023Z,10.86
2023-05-05T22:20:35.495Z,10.56
2023-05-05T22:23:39.137Z,10.71
2023-05-05T22:26:43.349Z,10.45
2023-05-05T22:29:46.627Z,10.49
2023-05-05T22:32:49.174Z,10.38
2023-05-05T22:35:52.092Z,10.34
2023-05-05T22:38:54.952Z,10.12
2023-05-05T22:41:58.111Z,10.15
2023-05-05T22:45:01.099Z,10.10
2023-05-05T22:48:03.868Z,9.95
2023-05-05T22:51:06.562Z,9.94
2023-05-05T22:54:09.323Z,10.08
2023-05-05T22:57:11.848Z,9.87
2023-05-05T23:00:14.675Z,10.25
2023-05-05T23:03:17.127Z,10.15
2023-05-05T23:06:19.639Z,10.04
2023-05-05T23:09:22.106Z,10.16
2023-05-05T23:12:24.591Z,9.90
2023-05-05T23:15:27.518Z,10.05
2023-05-05T23:18:29.907Z,9.70
2023-05-05T23:21:36.259Z,9.89
2023-05-05T23:24:44.686Z,9.50
2023-05-05T23:27:47.984Z,9.60
2023-05-05T23:30:50.528Z,9.58
2023-05-05T23:33:53.005Z,9.63
2023-05-05T23:36:55.941Z,9.63
2023-05-05T23:39:58.376Z,9.67
2023-05-05T23:43:01.106Z,9.69
2023-05-05T23:46:03.583Z,9.56
2023-05-05T23:49:06.226Z,9.55
2023-05-05T23:52:08.745Z,9.63
2023-05-05T23:55:11.606Z,9.60
2023-05-05T23:58:14.159Z,9.46
